sensor_id;sensor_type;location;lat;lon;timestamp;P1;durP1;ratioP1;P2;durP2;ratioP2
10894;SDS011;5500;49.886;8.074;2023-07-29T00:00:20;1.97;;;1.80;;
10894;SDS011;5500;49.886;8.074;2023-07-29T00:02:48;3.70;;;2.10;;
10894;SDS011;5500;49.886;8.074;2023-07-29T00:05:22;2.87;;;1.70;;
10894;SDS011;5500;49.886;8.074;2023-07-29T00:07:50;2.30;;;1.60;;
10894;SDS011;5500;49.886;8.074;2023-07-29T00:10:18;1.87;;;1.77;;
10894;SDS011;5500;49.886;8.074;2023-07-29T00:12:45;2.20;;;1.77;;
10894;SDS011;5500;49.886;8.074;2023-07-29T00:15:15;2.57;;;1.83;;
10894;SDS011;5500;49.886;8.074;2023-07-29T00:17:43;3.07;;;2.23;;
10894;SDS011;5500;49.886;8.074;2023-07-29T00:20:11;1.77;;;1.63;;
10894;SDS011;5500;49.886;8.074;2023-07-29T00:22:38;1.60;;;1.50;;
10894;SDS011;5500;49.886;8.074;2023-07-29T00:25:06;3.00;;;2.23;;
10894;SDS011;5500;49.886;8.074;2023-07-29T00:27:34;4.30;;;2.10;;
10894;SDS011;5500;49.886;8.074;2023-07-29T00:30:02;3.37;;;1.70;;
10894;SDS011;5500;49.886;8.074;2023-07-29T00:32:32;1.70;;;1.60;;
10894;SDS011;5500;49.886;8.074;2023-07-29T00:35:00;2.07;;;1.93;;
10894;SDS011;5500;49.886;8.074;2023-07-29T00:37:28;2.80;;;1.90;;
10894;SDS011;5500;49.886;8.074;2023-07-29T00:39:56;1.90;;;1.80;;
10894;SDS011;5500;49.886;8.074;2023-07-29T00:42:25;2.83;;;1.80;;
10894;SDS011;5500;49.886;8.074;2023-07-29T00:44:53;2.43;;;1.63;;
10894;SDS011;5500;49.886;8.074;2023-07-29T00:47:21;2.73;;;1.87;;
10894;SDS011;5500;49.886;8.074;2023-07-29T00:49:51;2.53;;;1.63;;
10894;SDS011;5500;49.886;8.074;2023-07-29T00:52:18;2.10;;;1.73;;
10894;SDS011;5500;49.886;8.074;2023-07-29T00:54:46;2.83;;;1.70;;
10894;SDS011;5500;49.886;8.074;2023-07-29T00:57:14;3.53;;;2.20;;
10894;SDS011;5500;49.886;8.074;2023-07-29T00:59:42;4.90;;;1.90;;
10894;SDS011;5500;49.886;8.074;2023-07-29T01:02:10;2.17;;;1.77;;
10894;SDS011;5500;49.886;8.074;2023-07-29T01:04:38;2.13;;;2.03;;
10894;SDS011;5500;49.886;8.074;2023-07-29T01:07:11;2.90;;;1.70;;
10894;SDS011;5500;49.886;8.074;2023-07-29T01:09:43;5.50;;;2.07;;
10894;SDS011;5500;49.886;8.074;2023-07-29T01:12:17;1.90;;;1.80;;
10894;SDS011;5500;49.886;8.074;2023-07-29T01:14:51;2.07;;;1.83;;
10894;SDS011;5500;49.886;8.074;2023-07-29T01:17:23;7.10;;;2.90;;
10894;SDS011;5500;49.886;8.074;2023-07-29T01:19:56;2.40;;;2.17;;
10894;SDS011;5500;49.886;8.074;2023-07-29T01:22:30;1.90;;;1.80;;
10894;SDS011;5500;49.886;8.074;2023-07-29T01:25:01;4.83;;;2.10;;
10894;SDS011;5500;49.886;8.074;2023-07-29T01:27:29;2.70;;;1.90;;
10894;SDS011;5500;49.886;8.074;2023-07-29T01:29:57;2.50;;;2.03;;
10894;SDS011;5500;49.886;8.074;2023-07-29T01:32:26;4.73;;;2.23;;
10894;SDS011;5500;49.886;8.074;2023-07-29T01:34:59;3.63;;;2.17;;
10894;SDS011;5500;49.886;8.074;2023-07-29T01:37:30;3.80;;;2.07;;
10894;SDS011;5500;49.886;8.074;2023-07-29T01:40:01;3.93;;;2.20;;
10894;SDS011;5500;49.886;8.074;2023-07-29T01:42:29;4.53;;;2.20;;
10894;SDS011;5500;49.886;8.074;2023-07-29T01:44:58;2.97;;;2.10;;
10894;SDS011;5500;49.886;8.074;2023-07-29T01:47:25;2.07;;;1.90;;
10894;SDS011;5500;49.886;8.074;2023-07-29T01:49:53;2.50;;;1.90;;
10894;SDS011;5500;49.886;8.074;2023-07-29T01:52:21;2.77;;;1.97;;
10894;SDS011;5500;49.886;8.074;2023-07-29T01:54:49;12.77;;;3.40;;
10894;SDS011;5500;49.886;8.074;2023-07-29T01:57:18;4.47;;;2.50;;
10894;SDS011;5500;49.886;8.074;2023-07-29T01:59:45;3.87;;;2.67;;
10894;SDS011;5500;49.886;8.074;2023-07-29T02:02:14;5.50;;;3.00;;
10894;SDS011;5500;49.886;8.074;2023-07-29T02:04:41;9.80;;;3.00;;
10894;SDS011;5500;49.886;8.074;2023-07-29T02:07:09;4.87;;;2.67;;
10894;SDS011;5500;49.886;8.074;2023-07-29T02:09:37;4.87;;;2.80;;
10894;SDS011;5500;49.886;8.074;2023-07-29T02:12:05;6.40;;;2.80;;
10894;SDS011;5500;49.886;8.074;2023-07-29T02:14:35;5.47;;;2.70;;
10894;SDS011;5500;49.886;8.074;2023-07-29T02:17:03;3.77;;;2.63;;
10894;SDS011;5500;49.886;8.074;2023-07-29T02:19:31;4.10;;;2.17;;
10894;SDS011;5500;49.886;8.074;2023-07-29T02:21:58;4.33;;;2.30;;
10894;SDS011;5500;49.886;8.074;2023-07-29T02:24:26;2.57;;;2.00;;
10894;SDS011;5500;49.886;8.074;2023-07-29T02:26:54;5.43;;;2.00;;
10894;SDS011;5500;49.886;8.074;2023-07-29T02:29:21;2.27;;;2.07;;
10894;SDS011;5500;49.886;8.074;2023-07-29T02:31:51;1.70;;;1.60;;
10894;SDS011;5500;49.886;8.074;2023-07-29T02:34:18;2.37;;;2.17;;
10894;SDS011;5500;49.886;8.074;2023-07-29T02:36:46;1.90;;;1.80;;
10894;SDS011;5500;49.886;8.074;2023-07-29T02:39:14;2.27;;;2.07;;
10894;SDS011;5500;49.886;8.074;2023-07-29T02:41:42;2.33;;;2.10;;
10894;SDS011;5500;49.886;8.074;2023-07-29T02:44:09;5.17;;;1.90;;
10894;SDS011;5500;49.886;8.074;2023-07-29T02:46:37;2.73;;;2.30;;
10894;SDS011;5500;49.886;8.074;2023-07-29T02:49:07;2.83;;;2.10;;
10894;SDS011;5500;49.886;8.074;2023-07-29T02:51:35;2.60;;;2.00;;
10894;SDS011;5500;49.886;8.074;2023-07-29T02:54:03;2.43;;;1.90;;
10894;SDS011;5500;49.886;8.074;2023-07-29T02:56:30;2.50;;;2.00;;
10894;SDS011;5500;49.886;8.074;2023-07-29T02:58:58;3.03;;;2.10;;
10894;SDS011;5500;49.886;8.074;2023-07-29T03:01:27;2.33;;;2.10;;
10894;SDS011;5500;49.886;8.074;2023-07-29T03:03:55;2.43;;;2.17;;
10894;SDS011;5500;49.886;8.074;2023-07-29T03:06:24;2.40;;;1.80;;
10894;SDS011;5500;49.886;8.074;2023-07-29T03:08:52;3.30;;;2.23;;
10894;SDS011;5500;49.886;8.074;2023-07-29T03:11:20;2.90;;;2.07;;
10894;SDS011;5500;49.886;8.074;2023-07-29T03:13:48;3.37;;;1.83;;
10894;SDS011;5500;49.886;8.074;2023-07-29T03:16:16;2.87;;;1.83;;
10894;SDS011;5500;49.886;8.074;2023-07-29T03:18:44;4.17;;;2.47;;
10894;SDS011;5500;49.886;8.074;2023-07-29T03:21:12;3.10;;;2.03;;
10894;SDS011;5500;49.886;8.074;2023-07-29T03:23:41;2.23;;;2.07;;
10894;SDS011;5500;49.886;8.074;2023-07-29T03:26:09;3.70;;;1.87;;
10894;SDS011;5500;49.886;8.074;2023-07-29T03:28:39;2.93;;;1.63;;
10894;SDS011;5500;49.886;8.074;2023-07-29T03:31:08;3.23;;;1.67;;
10894;SDS011;5500;49.886;8.074;2023-07-29T03:33:36;4.27;;;1.80;;
10894;SDS011;5500;49.886;8.074;2023-07-29T03:36:04;3.10;;;1.90;;
10894;SDS011;5500;49.886;8.074;2023-07-29T03:38:35;1.93;;;1.73;;
10894;SDS011;5500;49.886;8.074;2023-07-29T03:41:08;4.20;;;1.80;;
10894;SDS011;5500;49.886;8.074;2023-07-29T03:43:36;1.83;;;1.73;;
10894;SDS011;5500;49.886;8.074;2023-07-29T03:46:04;2.00;;;1.90;;
10894;SDS011;5500;49.886;8.074;2023-07-29T03:48:38;2.00;;;1.70;;
10894;SDS011;5500;49.886;8.074;2023-07-29T03:51:05;3.27;;;1.87;;
10894;SDS011;5500;49.886;8.074;2023-07-29T03:53:33;2.93;;;2.10;;
10894;SDS011;5500;49.886;8.074;2023-07-29T03:56:02;4.73;;;2.27;;
10894;SDS011;5500;49.886;8.074;2023-07-29T03:58:31;1.80;;;1.70;;
10894;SDS011;5500;49.886;8.074;2023-07-29T04:00:59;2.63;;;2.20;;
10894;SDS011;5500;49.886;8.074;2023-07-29T04:03:25;4.43;;;1.97;;
10894;SDS011;5500;49.886;8.074;2023-07-29T04:05:53;2.50;;;2.20;;
10894;SDS011;5500;49.886;8.074;2023-07-29T04:08:21;2.13;;;1.70;;
10894;SDS011;5500;49.886;8.074;2023-07-29T04:10:49;3.33;;;2.07;;
10894;SDS011;5500;49.886;8.074;2023-07-29T04:13:17;2.00;;;1.90;;
10894;SDS011;5500;49.886;8.074;2023-07-29T04:15:46;2.10;;;1.60;;
10894;SDS011;5500;49.886;8.074;2023-07-29T04:18:14;2.77;;;2.00;;
10894;SDS011;5500;49.886;8.074;2023-07-29T04:20:44;1.93;;;1.80;;
10894;SDS011;5500;49.886;8.074;2023-07-29T04:23:11;2.60;;;2.23;;
10894;SDS011;5500;49.886;8.074;2023-07-29T04:25:39;2.33;;;1.80;;
10894;SDS011;5500;49.886;8.074;2023-07-29T04:28:07;2.80;;;2.00;;
10894;SDS011;5500;49.886;8.074;2023-07-29T04:30:35;2.57;;;1.90;;
10894;SDS011;5500;49.886;8.074;2023-07-29T04:33:04;3.43;;;2.43;;
10894;SDS011;5500;49.886;8.074;2023-07-29T04:35:32;2.10;;;1.90;;
10894;SDS011;5500;49.886;8.074;2023-07-29T04:38:00;4.13;;;2.17;;
10894;SDS011;5500;49.886;8.074;2023-07-29T04:40:27;2.90;;;2.00;;
10894;SDS011;5500;49.886;8.074;2023-07-29T04:42:55;3.33;;;2.23;;
10894;SDS011;5500;49.886;8.074;2023-07-29T04:45:23;2.03;;;1.93;;
10894;SDS011;5500;49.886;8.074;2023-07-29T04:47:55;3.20;;;2.20;;
10894;SDS011;5500;49.886;8.074;2023-07-29T04:50:24;3.43;;;2.13;;
10894;SDS011;5500;49.886;8.074;2023-07-29T04:52:52;1.90;;;1.80;;
10894;SDS011;5500;49.886;8.074;2023-07-29T04:55:20;4.33;;;1.90;;
10894;SDS011;5500;49.886;8.074;2023-07-29T04:57:47;3.33;;;2.37;;
10894;SDS011;5500;49.886;8.074;2023-07-29T05:00:15;2.33;;;2.10;;
10894;SDS011;5500;49.886;8.074;2023-07-29T05:02:43;2.33;;;2.13;;
10894;SDS011;5500;49.886;8.074;2023-07-29T05:05:12;3.97;;;2.00;;
10894;SDS011;5500;49.886;8.074;2023-07-29T05:07:41;2.27;;;1.90;;
10894;SDS011;5500;49.886;8.074;2023-07-29T05:10:09;2.00;;;1.90;;
10894;SDS011;5500;49.886;8.074;2023-07-29T05:12:37;4.30;;;2.10;;
10894;SDS011;5500;49.886;8.074;2023-07-29T05:15:05;5.60;;;2.17;;
10894;SDS011;5500;49.886;8.074;2023-07-29T05:17:34;2.23;;;1.93;;
10894;SDS011;5500;49.886;8.074;2023-07-29T05:20:02;5.03;;;2.10;;
10894;SDS011;5500;49.886;8.074;2023-07-29T05:22:30;3.13;;;2.33;;
10894;SDS011;5500;49.886;8.074;2023-07-29T05:24:59;2.10;;;1.80;;
10894;SDS011;5500;49.886;8.074;2023-07-29T05:27:27;2.33;;;2.13;;
10894;SDS011;5500;49.886;8.074;2023-07-29T05:29:54;3.13;;;1.80;;
10894;SDS011;5500;49.886;8.074;2023-07-29T05:32:22;3.83;;;2.10;;
10894;SDS011;5500;49.886;8.074;2023-07-29T05:34:50;1.93;;;1.80;;
10894;SDS011;5500;49.886;8.074;2023-07-29T05:37:18;2.40;;;1.53;;
10894;SDS011;5500;49.886;8.074;2023-07-29T05:39:45;2.10;;;1.93;;
10894;SDS011;5500;49.886;8.074;2023-07-29T05:42:14;3.43;;;1.90;;
10894;SDS011;5500;49.886;8.074;2023-07-29T05:44:42;2.50;;;2.07;;
10894;SDS011;5500;49.886;8.074;2023-07-29T05:47:10;4.40;;;2.17;;
10894;SDS011;5500;49.886;8.074;2023-07-29T05:49:38;2.43;;;2.23;;
10894;SDS011;5500;49.886;8.074;2023-07-29T05:52:06;3.30;;;2.13;;
10894;SDS011;5500;49.886;8.074;2023-07-29T05:54:34;2.27;;;2.07;;
10894;SDS011;5500;49.886;8.074;2023-07-29T05:57:01;4.63;;;2.37;;
10894;SDS011;5500;49.886;8.074;2023-07-29T05:59:30;3.63;;;2.43;;
10894;SDS011;5500;49.886;8.074;2023-07-29T06:01:58;2.63;;;2.40;;
10894;SDS011;5500;49.886;8.074;2023-07-29T06:04:26;2.57;;;2.37;;
10894;SDS011;5500;49.886;8.074;2023-07-29T06:06:54;4.03;;;2.53;;
10894;SDS011;5500;49.886;8.074;2023-07-29T06:09:22;3.90;;;2.23;;
10894;SDS011;5500;49.886;8.074;2023-07-29T06:11:51;3.30;;;2.40;;
10894;SDS011;5500;49.886;8.074;2023-07-29T06:14:21;5.13;;;2.70;;
10894;SDS011;5500;49.886;8.074;2023-07-29T06:16:50;5.53;;;2.80;;
10894;SDS011;5500;49.886;8.074;2023-07-29T06:19:18;2.53;;;2.33;;
10894;SDS011;5500;49.886;8.074;2023-07-29T06:21:46;3.83;;;2.60;;
10894;SDS011;5500;49.886;8.074;2023-07-29T06:24:15;3.30;;;3.00;;
10894;SDS011;5500;49.886;8.074;2023-07-29T06:26:43;4.00;;;2.80;;
10894;SDS011;5500;49.886;8.074;2023-07-29T06:29:10;2.97;;;2.53;;
10894;SDS011;5500;49.886;8.074;2023-07-29T06:31:38;3.73;;;2.40;;
10894;SDS011;5500;49.886;8.074;2023-07-29T06:34:07;3.77;;;2.40;;
10894;SDS011;5500;49.886;8.074;2023-07-29T06:36:35;5.40;;;2.50;;
10894;SDS011;5500;49.886;8.074;2023-07-29T06:39:03;2.40;;;2.20;;
10894;SDS011;5500;49.886;8.074;2023-07-29T06:41:30;3.13;;;2.77;;
10894;SDS011;5500;49.886;8.074;2023-07-29T06:43:58;3.33;;;2.67;;
10894;SDS011;5500;49.886;8.074;2023-07-29T06:46:26;5.20;;;2.80;;
10894;SDS011;5500;49.886;8.074;2023-07-29T06:48:53;3.40;;;2.57;;
10894;SDS011;5500;49.886;8.074;2023-07-29T06:51:23;4.40;;;2.20;;
10894;SDS011;5500;49.886;8.074;2023-07-29T06:53:50;4.20;;;2.70;;
10894;SDS011;5500;49.886;8.074;2023-07-29T06:56:18;4.20;;;3.17;;
10894;SDS011;5500;49.886;8.074;2023-07-29T06:58:46;3.47;;;2.50;;
10894;SDS011;5500;49.886;8.074;2023-07-29T07:01:14;3.37;;;2.80;;
10894;SDS011;5500;49.886;8.074;2023-07-29T07:03:41;4.13;;;2.90;;
10894;SDS011;5500;49.886;8.074;2023-07-29T07:06:09;2.53;;;2.20;;
10894;SDS011;5500;49.886;8.074;2023-07-29T07:08:38;2.77;;;2.37;;
10894;SDS011;5500;49.886;8.074;2023-07-29T07:11:07;2.17;;;2.07;;
10894;SDS011;5500;49.886;8.074;2023-07-29T07:13:35;3.07;;;2.60;;
10894;SDS011;5500;49.886;8.074;2023-07-29T07:16:02;3.03;;;2.77;;
10894;SDS011;5500;49.886;8.074;2023-07-29T07:18:30;3.93;;;2.70;;
10894;SDS011;5500;49.886;8.074;2023-07-29T07:20:58;5.03;;;2.60;;
10894;SDS011;5500;49.886;8.074;2023-07-29T07:23:26;3.20;;;2.60;;
10894;SDS011;5500;49.886;8.074;2023-07-29T07:25:55;2.97;;;2.77;;
10894;SDS011;5500;49.886;8.074;2023-07-29T07:28:23;5.93;;;2.90;;
10894;SDS011;5500;49.886;8.074;2023-07-29T07:30:51;4.17;;;2.60;;
10894;SDS011;5500;49.886;8.074;2023-07-29T07:33:19;2.87;;;2.67;;
10894;SDS011;5500;49.886;8.074;2023-07-29T07:35:46;4.20;;;2.43;;
10894;SDS011;5500;49.886;8.074;2023-07-29T07:38:14;9.57;;;2.50;;
10894;SDS011;5500;49.886;8.074;2023-07-29T07:40:43;2.90;;;1.97;;
10894;SDS011;5500;49.886;8.074;2023-07-29T07:43:21;3.30;;;1.97;;
10894;SDS011;5500;49.886;8.074;2023-07-29T07:45:49;2.50;;;1.70;;
10894;SDS011;5500;49.886;8.074;2023-07-29T07:48:16;1.93;;;1.83;;
10894;SDS011;5500;49.886;8.074;2023-07-29T07:50:46;4.83;;;1.97;;
10894;SDS011;5500;49.886;8.074;2023-07-29T07:53:14;1.97;;;1.77;;
10894;SDS011;5500;49.886;8.074;2023-07-29T07:55:41;2.70;;;2.00;;
10894;SDS011;5500;49.886;8.074;2023-07-29T07:58:09;2.47;;;1.50;;
10894;SDS011;5500;49.886;8.074;2023-07-29T08:00:38;3.77;;;1.73;;
10894;SDS011;5500;49.886;8.074;2023-07-29T08:03:06;3.73;;;1.67;;
10894;SDS011;5500;49.886;8.074;2023-07-29T08:05:33;1.80;;;1.40;;
10894;SDS011;5500;49.886;8.074;2023-07-29T08:08:01;1.57;;;1.30;;
10894;SDS011;5500;49.886;8.074;2023-07-29T08:10:29;1.10;;;1.00;;
10894;SDS011;5500;49.886;8.074;2023-07-29T08:12:56;1.50;;;1.23;;
10894;SDS011;5500;49.886;8.074;2023-07-29T08:15:25;1.40;;;1.20;;
10894;SDS011;5500;49.886;8.074;2023-07-29T08:17:54;2.47;;;1.13;;
10894;SDS011;5500;49.886;8.074;2023-07-29T08:20:21;1.00;;;1.00;;
10894;SDS011;5500;49.886;8.074;2023-07-29T08:22:49;1.90;;;1.40;;
10894;SDS011;5500;49.886;8.074;2023-07-29T08:25:17;1.93;;;1.30;;
10894;SDS011;5500;49.886;8.074;2023-07-29T08:27:44;1.90;;;1.40;;
10894;SDS011;5500;49.886;8.074;2023-07-29T08:30:12;1.30;;;1.20;;
10894;SDS011;5500;49.886;8.074;2023-07-29T08:32:42;2.10;;;1.10;;
10894;SDS011;5500;49.886;8.074;2023-07-29T08:35:12;2.00;;;1.30;;
10894;SDS011;5500;49.886;8.074;2023-07-29T08:37:40;3.07;;;1.20;;
10894;SDS011;5500;49.886;8.074;2023-07-29T08:40:08;6.17;;;1.73;;
10894;SDS011;5500;49.886;8.074;2023-07-29T08:42:36;5.13;;;1.83;;
10894;SDS011;5500;49.886;8.074;2023-07-29T08:45:06;1.77;;;1.50;;
10894;SDS011;5500;49.886;8.074;2023-07-29T08:47:35;1.40;;;1.30;;
10894;SDS011;5500;49.886;8.074;2023-07-29T08:50:03;1.77;;;1.13;;
10894;SDS011;5500;49.886;8.074;2023-07-29T08:52:33;2.00;;;1.50;;
10894;SDS011;5500;49.886;8.074;2023-07-29T08:55:02;3.13;;;1.10;;
10894;SDS011;5500;49.886;8.074;2023-07-29T08:57:30;2.53;;;1.60;;
10894;SDS011;5500;49.886;8.074;2023-07-29T08:59:58;1.50;;;1.40;;
10894;SDS011;5500;49.886;8.074;2023-07-29T09:02:27;2.03;;;1.40;;
10894;SDS011;5500;49.886;8.074;2023-07-29T09:04:55;1.60;;;1.50;;
10894;SDS011;5500;49.886;8.074;2023-07-29T09:07:23;2.83;;;1.37;;
10894;SDS011;5500;49.886;8.074;2023-07-29T09:09:52;2.70;;;1.47;;
10894;SDS011;5500;49.886;8.074;2023-07-29T09:12:20;1.50;;;1.40;;
10894;SDS011;5500;49.886;8.074;2023-07-29T09:14:47;1.77;;;1.40;;
10894;SDS011;5500;49.886;8.074;2023-07-29T09:17:19;4.70;;;1.43;;
10894;SDS011;5500;49.886;8.074;2023-07-29T09:19:48;4.60;;;1.40;;
10894;SDS011;5500;49.886;8.074;2023-07-29T09:22:19;1.37;;;1.27;;
10894;SDS011;5500;49.886;8.074;2023-07-29T09:24:47;3.83;;;1.67;;
10894;SDS011;5500;49.886;8.074;2023-07-29T09:27:25;1.50;;;1.40;;
10894;SDS011;5500;49.886;8.074;2023-07-29T09:29:54;1.93;;;1.70;;
10894;SDS011;5500;49.886;8.074;2023-07-29T09:32:23;2.00;;;1.47;;
10894;SDS011;5500;49.886;8.074;2023-07-29T09:34:51;2.37;;;1.27;;
10894;SDS011;5500;49.886;8.074;2023-07-29T09:37:20;2.13;;;1.60;;
10894;SDS011;5500;49.886;8.074;2023-07-29T09:39:48;1.53;;;1.43;;
10894;SDS011;5500;49.886;8.074;2023-07-29T09:42:17;1.50;;;1.40;;
10894;SDS011;5500;49.886;8.074;2023-07-29T09:44:48;1.40;;;1.30;;
10894;SDS011;5500;49.886;8.074;2023-07-29T09:47:20;2.90;;;1.40;;
10894;SDS011;5500;49.886;8.074;2023-07-29T09:49:48;2.53;;;1.27;;
10894;SDS011;5500;49.886;8.074;2023-07-29T09:52:16;1.50;;;1.30;;
10894;SDS011;5500;49.886;8.074;2023-07-29T09:54:44;1.40;;;1.30;;
10894;SDS011;5500;49.886;8.074;2023-07-29T09:57:12;2.07;;;1.30;;
10894;SDS011;5500;49.886;8.074;2023-07-29T09:59:41;2.20;;;1.20;;
10894;SDS011;5500;49.886;8.074;2023-07-29T10:02:13;1.30;;;1.20;;
10894;SDS011;5500;49.886;8.074;2023-07-29T10:04:42;2.43;;;1.50;;
10894;SDS011;5500;49.886;8.074;2023-07-29T10:07:10;3.63;;;1.40;;
10894;SDS011;5500;49.886;8.074;2023-07-29T10:09:37;3.30;;;1.37;;
10894;SDS011;5500;49.886;8.074;2023-07-29T10:12:07;1.38;;;1.27;;
10894;SDS011;5500;49.886;8.074;2023-07-29T10:14:35;1.30;;;1.20;;
10894;SDS011;5500;49.886;8.074;2023-07-29T10:17:04;1.80;;;1.63;;
10894;SDS011;5500;49.886;8.074;2023-07-29T10:19:34;1.57;;;1.20;;
10894;SDS011;5500;49.886;8.074;2023-07-29T10:22:02;2.63;;;1.30;;
10894;SDS011;5500;49.886;8.074;2023-07-29T10:24:31;1.15;;;1.13;;
10894;SDS011;5500;49.886;8.074;2023-07-29T10:27:01;6.25;;;1.20;;
10894;SDS011;5500;49.886;8.074;2023-07-29T10:29:30;1.33;;;1.02;;
10894;SDS011;5500;49.886;8.074;2023-07-29T10:32:01;2.35;;;1.15;;
10894;SDS011;5500;49.886;8.074;2023-07-29T10:34:29;5.65;;;1.30;;
10894;SDS011;5500;49.886;8.074;2023-07-29T10:36:59;2.28;;;1.33;;
10894;SDS011;5500;49.886;8.074;2023-07-29T10:39:27;1.48;;;1.30;;
10894;SDS011;5500;49.886;8.074;2023-07-29T10:41:55;1.67;;;1.27;;
10894;SDS011;5500;49.886;8.074;2023-07-29T10:47:20;1.27;;;1.20;;
10894;SDS011;5500;49.886;8.074;2023-07-29T10:49:52;2.13;;;1.50;;
10894;SDS011;5500;49.886;8.074;2023-07-29T10:52:29;1.70;;;1.60;;
10894;SDS011;5500;49.886;8.074;2023-07-29T10:54:58;2.60;;;1.40;;
10894;SDS011;5500;49.886;8.074;2023-07-29T10:57:30;1.27;;;1.17;;
10894;SDS011;5500;49.886;8.074;2023-07-29T11:00:00;1.48;;;1.38;;
10894;SDS011;5500;49.886;8.074;2023-07-29T11:02:29;1.88;;;1.52;;
10894;SDS011;5500;49.886;8.074;2023-07-29T11:04:58;2.40;;;1.50;;
10894;SDS011;5500;49.886;8.074;2023-07-29T11:07:27;2.13;;;1.60;;
10894;SDS011;5500;49.886;8.074;2023-07-29T11:09:57;1.52;;;1.20;;
10894;SDS011;5500;49.886;8.074;2023-07-29T11:12:39;1.52;;;1.42;;
10894;SDS011;5500;49.886;8.074;2023-07-29T11:15:12;1.60;;;1.50;;
10894;SDS011;5500;49.886;8.074;2023-07-29T11:17:42;3.38;;;1.65;;
10894;SDS011;5500;49.886;8.074;2023-07-29T11:20:11;2.15;;;1.60;;
10894;SDS011;5500;49.886;8.074;2023-07-29T11:22:41;4.57;;;1.80;;
10894;SDS011;5500;49.886;8.074;2023-07-29T11:25:09;2.35;;;1.48;;
10894;SDS011;5500;49.886;8.074;2023-07-29T11:27:38;1.67;;;1.58;;
10894;SDS011;5500;49.886;8.074;2023-07-29T11:30:07;2.50;;;1.45;;
10894;SDS011;5500;49.886;8.074;2023-07-29T11:32:35;1.50;;;1.40;;
10894;SDS011;5500;49.886;8.074;2023-07-29T11:35:04;2.17;;;1.30;;
10894;SDS011;5500;49.886;8.074;2023-07-29T11:37:33;1.40;;;1.30;;
10894;SDS011;5500;49.886;8.074;2023-07-29T11:40:03;2.70;;;1.35;;
10894;SDS011;5500;49.886;8.074;2023-07-29T11:42:32;2.55;;;1.40;;
10894;SDS011;5500;49.886;8.074;2023-07-29T11:45:01;2.17;;;1.40;;
10894;SDS011;5500;49.886;8.074;2023-07-29T11:47:30;1.33;;;1.23;;
10894;SDS011;5500;49.886;8.074;2023-07-29T11:50:01;1.55;;;1.45;;
10894;SDS011;5500;49.886;8.074;2023-07-29T11:52:30;1.67;;;1.58;;
10894;SDS011;5500;49.886;8.074;2023-07-29T11:54:59;2.55;;;1.40;;
10894;SDS011;5500;49.886;8.074;2023-07-29T11:57:29;1.33;;;1.23;;
10894;SDS011;5500;49.886;8.074;2023-07-29T11:59:57;2.03;;;1.50;;
10894;SDS011;5500;49.886;8.074;2023-07-29T12:02:24;1.40;;;1.30;;
10894;SDS011;5500;49.886;8.074;2023-07-29T12:04:52;1.90;;;1.40;;
10894;SDS011;5500;49.886;8.074;2023-07-29T12:07:20;1.50;;;1.40;;
10894;SDS011;5500;49.886;8.074;2023-07-29T12:09:48;1.75;;;1.35;;
10894;SDS011;5500;49.886;8.074;2023-07-29T12:12:16;1.60;;;1.13;;
10894;SDS011;5500;49.886;8.074;2023-07-29T12:14:46;2.38;;;1.23;;
10894;SDS011;5500;49.886;8.074;2023-07-29T12:17:13;1.30;;;1.20;;
10894;SDS011;5500;49.886;8.074;2023-07-29T12:19:41;1.75;;;1.20;;
10894;SDS011;5500;49.886;8.074;2023-07-29T12:22:10;1.50;;;1.40;;
10894;SDS011;5500;49.886;8.074;2023-07-29T12:24:40;2.97;;;1.40;;
10894;SDS011;5500;49.886;8.074;2023-07-29T12:27:10;2.03;;;1.15;;
10894;SDS011;5500;49.886;8.074;2023-07-29T12:29:41;2.33;;;1.40;;
10894;SDS011;5500;49.886;8.074;2023-07-29T12:32:11;1.60;;;1.50;;
10894;SDS011;5500;49.886;8.074;2023-07-29T12:34:39;1.50;;;1.40;;
10894;SDS011;5500;49.886;8.074;2023-07-29T12:37:06;1.27;;;1.17;;
10894;SDS011;5500;49.886;8.074;2023-07-29T12:39:35;1.50;;;1.40;;
10894;SDS011;5500;49.886;8.074;2023-07-29T12:42:07;1.42;;;1.33;;
10894;SDS011;5500;49.886;8.074;2023-07-29T12:44:35;1.50;;;1.40;;
10894;SDS011;5500;49.886;8.074;2023-07-29T12:47:05;1.83;;;1.30;;
10894;SDS011;5500;49.886;8.074;2023-07-29T12:49:36;1.65;;;1.55;;
10894;SDS011;5500;49.886;8.074;2023-07-29T12:52:04;1.90;;;1.30;;
10894;SDS011;5500;49.886;8.074;2023-07-29T12:54:32;2.20;;;1.30;;
10894;SDS011;5500;49.886;8.074;2023-07-29T12:57:00;1.92;;;1.67;;
10894;SDS011;5500;49.886;8.074;2023-07-29T12:59:27;2.85;;;1.40;;
10894;SDS011;5500;49.886;8.074;2023-07-29T13:01:55;2.08;;;1.40;;
10894;SDS011;5500;49.886;8.074;2023-07-29T13:04:23;1.55;;;1.45;;
10894;SDS011;5500;49.886;8.074;2023-07-29T13:06:52;2.90;;;1.38;;
10894;SDS011;5500;49.886;8.074;2023-07-29T13:09:20;1.33;;;1.23;;
10894;SDS011;5500;49.886;8.074;2023-07-29T13:11:47;1.30;;;1.20;;
10894;SDS011;5500;49.886;8.074;2023-07-29T13:14:15;1.50;;;1.40;;
10894;SDS011;5500;49.886;8.074;2023-07-29T13:16:43;2.60;;;1.40;;
10894;SDS011;5500;49.886;8.074;2023-07-29T13:19:10;2.85;;;1.30;;
10894;SDS011;5500;49.886;8.074;2023-07-29T13:21:38;1.95;;;1.63;;
10894;SDS011;5500;49.886;8.074;2023-07-29T13:24:07;1.60;;;1.50;;
10894;SDS011;5500;49.886;8.074;2023-07-29T13:26:35;1.85;;;1.70;;
10894;SDS011;5500;49.886;8.074;2023-07-29T13:29:03;1.50;;;1.40;;
10894;SDS011;5500;49.886;8.074;2023-07-29T13:31:35;2.17;;;1.35;;
10894;SDS011;5500;49.886;8.074;2023-07-29T13:34:02;1.58;;;1.48;;
10894;SDS011;5500;49.886;8.074;2023-07-29T13:36:30;1.90;;;1.40;;
10894;SDS011;5500;49.886;8.074;2023-07-29T13:38:58;1.75;;;1.65;;
10894;SDS011;5500;49.886;8.074;2023-07-29T13:41:26;1.42;;;1.30;;
10894;SDS011;5500;49.886;8.074;2023-07-29T13:43:54;1.60;;;1.48;;
10894;SDS011;5500;49.886;8.074;2023-07-29T13:46:22;1.38;;;1.27;;
10894;SDS011;5500;49.886;8.074;2023-07-29T13:48:49;1.98;;;1.40;;
10894;SDS011;5500;49.886;8.074;2023-07-29T13:51:17;1.58;;;1.48;;
10894;SDS011;5500;49.886;8.074;2023-07-29T13:53:45;1.48;;;1.38;;
10894;SDS011;5500;49.886;8.074;2023-07-29T13:56:12;2.63;;;1.30;;
10894;SDS011;5500;49.886;8.074;2023-07-29T13:58:41;1.50;;;1.30;;
10894;SDS011;5500;49.886;8.074;2023-07-29T14:01:09;1.40;;;1.27;;
10894;SDS011;5500;49.886;8.074;2023-07-29T14:03:36;1.60;;;1.50;;
10894;SDS011;5500;49.886;8.074;2023-07-29T14:06:04;1.60;;;1.50;;
10894;SDS011;5500;49.886;8.074;2023-07-29T14:08:32;1.40;;;1.30;;
10894;SDS011;5500;49.886;8.074;2023-07-29T14:11:01;2.53;;;1.67;;
10894;SDS011;5500;49.886;8.074;2023-07-29T14:13:29;1.77;;;1.67;;
10894;SDS011;5500;49.886;8.074;2023-07-29T14:15:58;1.52;;;1.42;;
10894;SDS011;5500;49.886;8.074;2023-07-29T14:18:28;1.63;;;1.52;;
10894;SDS011;5500;49.886;8.074;2023-07-29T14:20:55;1.40;;;1.30;;
10894;SDS011;5500;49.886;8.074;2023-07-29T14:23:23;1.40;;;1.30;;
10894;SDS011;5500;49.886;8.074;2023-07-29T14:25:50;1.70;;;1.60;;
10894;SDS011;5500;49.886;8.074;2023-07-29T14:28:18;1.40;;;1.30;;
10894;SDS011;5500;49.886;8.074;2023-07-29T14:30:46;1.77;;;1.67;;
10894;SDS011;5500;49.886;8.074;2023-07-29T14:33:15;1.50;;;1.40;;
10894;SDS011;5500;49.886;8.074;2023-07-29T14:35:43;2.85;;;1.65;;
10894;SDS011;5500;49.886;8.074;2023-07-29T14:38:11;1.50;;;1.40;;
10894;SDS011;5500;49.886;8.074;2023-07-29T14:40:38;3.17;;;1.48;;
10894;SDS011;5500;49.886;8.074;2023-07-29T14:43:06;1.60;;;1.50;;
10894;SDS011;5500;49.886;8.074;2023-07-29T14:45:34;1.60;;;1.50;;
10894;SDS011;5500;49.886;8.074;2023-07-29T14:48:01;1.77;;;1.40;;
10894;SDS011;5500;49.886;8.074;2023-07-29T14:50:33;1.55;;;1.45;;
10894;SDS011;5500;49.886;8.074;2023-07-29T14:53:02;1.60;;;1.50;;
10894;SDS011;5500;49.886;8.074;2023-07-29T14:55:29;1.35;;;1.25;;
10894;SDS011;5500;49.886;8.074;2023-07-29T14:57:57;1.67;;;1.55;;
10894;SDS011;5500;49.886;8.074;2023-07-29T15:00:25;2.78;;;1.77;;
10894;SDS011;5500;49.886;8.074;2023-07-29T15:02:53;1.60;;;1.50;;
10894;SDS011;5500;49.886;8.074;2023-07-29T15:05:21;1.58;;;1.48;;
10894;SDS011;5500;49.886;8.074;2023-07-29T15:07:50;2.33;;;1.60;;
10894;SDS011;5500;49.886;8.074;2023-07-29T15:10:17;2.97;;;1.60;;